createdAt,value
2018-09-18T04:29:10.031Z,7.00
2018-09-18T04:31:40.105Z,6.70
2018-09-18T04:34:09.812Z,7.30
2018-09-18T04:36:38.378Z,7.60
2018-09-18T04:39:09.008Z,7.10
2018-09-18T04:41:37.591Z,7.17
2018-09-18T04:44:06.713Z,7.70
2018-09-18T04:46:36.749Z,7.47
2018-09-18T04:49:05.367Z,7.93
2018-09-18T04:51:33.935Z,7.20
2018-09-18T04:54:02.483Z,8.17
2018-09-18T04:56:30.999Z,7.63
2018-09-18T04:58:59.570Z,7.87
2018-09-18T05:01:28.114Z,7.27
2018-09-18T05:03:56.751Z,8.23
2018-09-18T05:06:25.368Z,8.03
2018-09-18T05:08:54.113Z,7.33
2018-09-18T05:11:22.662Z,8.10
2018-09-18T05:13:51.220Z,7.67
2018-09-18T05:16:19.777Z,7.80
2018-09-18T05:18:48.409Z,7.70
2018-09-18T05:21:16.949Z,7.77
2018-09-18T05:23:45.493Z,7.97
2018-09-18T05:26:14.050Z,7.67
2018-09-18T05:28:42.626Z,8.60
2018-09-18T05:31:11.188Z,8.67
2018-09-18T05:33:39.786Z,7.57
2018-09-18T05:36:08.327Z,7.97
2018-09-18T05:38:36.882Z,8.20
2018-09-18T05:41:05.405Z,8.13
2018-09-18T05:43:34.072Z,8.13
2018-09-18T05:46:02.580Z,7.80
2018-09-18T05:48:34.992Z,8.47
2018-09-18T05:51:04.067Z,8.10
2018-09-18T05:53:32.583Z,8.43
2018-09-18T05:56:01.127Z,8.40
2018-09-18T05:58:29.948Z,8.63
2018-09-18T06:00:58.574Z,8.70
2018-09-18T06:03:27.090Z,9.20
2018-09-18T06:05:55.587Z,9.20
2018-09-18T06:08:24.140Z,9.40
2018-09-18T06:10:52.679Z,8.87
2018-09-18T06:13:21.243Z,8.90
2018-09-18T06:15:49.764Z,8.73
2018-09-18T06:18:18.272Z,8.30
2018-09-18T06:20:46.815Z,9.03
2018-09-18T06:23:15.375Z,8.47
2018-09-18T06:25:43.915Z,9.57
2018-09-18T06:28:12.441Z,9.27
2018-09-18T06:30:41.038Z,9.27
2018-09-18T06:33:09.746Z,9.00
2018-09-18T06:35:38.336Z,9.90
2018-09-18T06:38:06.965Z,9.47
2018-09-18T06:40:35.521Z,9.63
2018-09-18T06:43:04.040Z,9.57
2018-09-18T06:45:32.738Z,9.70
2018-09-18T06:48:01.378Z,9.50
2018-09-18T06:50:29.910Z,9.57
2018-09-18T06:52:58.488Z,9.37
2018-09-18T06:55:27.788Z,9.70
2018-09-18T06:57:56.328Z,9.10
2018-09-18T16:09:39.596Z,6.15
2018-09-18T16:12:08.813Z,5.80
2018-09-18T16:14:37.642Z,6.00
2018-09-18T16:17:13.754Z,6.12
2018-09-18T16:19:42.656Z,6.40
2018-09-18T16:22:15.305Z,6.30
2018-09-18T16:24:45.221Z,6.35
2018-09-18T16:27:13.846Z,6.30
2018-09-18T16:29:46.013Z,5.78
2018-09-18T16:32:17.864Z,6.03
2018-09-18T16:34:46.445Z,6.25
2018-09-18T16:37:15.098Z,6.15
2018-09-18T16:39:43.669Z,6.00
2018-09-18T16:42:12.882Z,5.40
2018-09-18T16:44:44.178Z,5.75
2018-09-18T16:47:12.771Z,5.92
2018-09-18T16:49:41.308Z,5.60
2018-09-18T16:52:09.976Z,5.58
2018-09-18T16:54:38.675Z,5.83
2018-09-18T16:57:08.597Z,5.70
2018-09-18T16:59:37.283Z,5.85
2018-09-18T17:02:06.635Z,5.75
2018-09-18T17:04:35.321Z,5.60
2018-09-18T17:07:03.878Z,5.75
2018-09-18T17:09:32.660Z,5.65
2018-09-18T17:12:02.407Z,5.55
2018-09-18T17:14:32.418Z,5.70
2018-09-18T17:17:01.116Z,5.70
2018-09-18T17:19:32.032Z,5.85
2018-09-18T17:22:00.658Z,5.85
2018-09-18T17:24:30.017Z,5.35
2018-09-18T17:26:58.546Z,5.65
2018-09-18T17:29:27.468Z,6.03
2018-09-18T17:31:56.207Z,6.12
2018-09-18T17:34:24.859Z,6.10
2018-09-18T17:36:53.473Z,6.37
2018-09-18T17:39:22.067Z,6.10
2018-09-18T17:41:50.634Z,6.33
2018-09-18T17:44:19.218Z,6.67
2018-09-18T17:46:47.737Z,6.35
2018-09-18T17:49:16.343Z,6.30
2018-09-18T17:51:44.939Z,6.45
2018-09-18T17:54:13.504Z,6.20
2018-09-18T17:56:42.086Z,6.50
2018-09-18T17:59:10.690Z,6.72
2018-09-18T18:01:39.290Z,6.45
2018-09-18T18:04:07.886Z,6.87
2018-09-18T18:06:36.409Z,6.25
2018-09-18T18:09:07.465Z,6.47
2018-09-18T18:11:38.045Z,6.12
2018-09-18T18:14:07.203Z,6.22
2018-09-18T18:16:39.345Z,6.37
2018-09-18T18:19:08.467Z,6.33
2018-09-18T18:21:39.917Z,6.60
2018-09-18T18:24:10.546Z,6.30
2018-09-18T18:26:39.711Z,6.15
2018-09-18T18:29:13.428Z,6.03
2018-09-18T18:31:45.043Z,5.97
2018-09-18T18:34:15.686Z,6.30
2018-09-18T18:36:48.761Z,6.42
2018-09-18T18:39:17.559Z,6.40
2018-09-18T18:41:46.198Z,6.30
2018-09-18T18:44:15.730Z,6.25
2018-09-18T18:46:44.361Z,6.50
2018-09-18T18:49:13.063Z,6.25
2018-09-18T18:51:42.282Z,6.10
2018-09-18T18:54:12.688Z,6.80
2018-09-18T18:56:45.955Z,6.55
2018-09-18T18:59:18.820Z,8.10
2018-09-18T19:01:49.418Z,9.48
2018-09-18T19:04:23.849Z,7.80
2018-09-18T19:06:54.399Z,9.20
2018-09-18T19:09:22.990Z,8.70
2018-09-18T19:12:07.298Z,7.85
2018-09-18T19:14:54.454Z,7.65
2018-09-18T19:17:29.965Z,8.45
2018-09-18T19:19:58.997Z,8.53
2018-09-18T19:22:27.985Z,8.88
2018-09-18T19:24:57.203Z,7.85
2018-09-18T19:27:26.485Z,6.67
2018-09-18T19:29:58.564Z,7.10
2018-09-18T19:32:29.499Z,7.12
2018-09-18T19:35:02.444Z,6.92
2018-09-18T19:37:31.720Z,7.20
2018-09-18T19:40:01.548Z,6.70
2018-09-18T19:42:30.438Z,6.87
2018-09-18T19:44:59.176Z,7.35
2018-09-18T19:47:32.580Z,6.87
2018-09-18T19:50:01.461Z,7.25
2018-09-18T19:52:30.181Z,7.37
2018-09-18T19:55:06.096Z,6.83
2018-09-18T19:57:39.685Z,7.35
2018-09-18T20:00:14.420Z,7.55
2018-09-18T20:02:44.301Z,7.42
2018-09-18T20:05:13.929Z,7.65
2018-09-18T20:07:42.671Z,7.42
2018-09-18T20:10:11.749Z,7.55
2018-09-18T20:12:41.294Z,7.45
2018-09-18T20:15:10.551Z,7.72
2018-09-18T20:17:40.796Z,7.17
2018-09-18T20:20:10.228Z,7.60
2018-09-18T20:22:40.171Z,7.50
2018-09-18T20:25:09.509Z,7.85
2018-09-18T20:27:39.301Z,7.60
2018-09-18T20:30:08.206Z,7.90
2018-09-18T20:32:37.844Z,8.60
2018-09-18T20:35:10.364Z,8.13
2018-09-18T20:37:39.441Z,8.00
2018-09-18T20:40:11.963Z,7.85
2018-09-18T20:42:50.717Z,8.00
2018-09-18T20:45:20.614Z,7.67
2018-09-18T20:47:51.448Z,7.92
2018-09-18T20:50:23.931Z,8.13
2018-09-18T20:52:55.660Z,7.97
2018-09-18T20:55:26.090Z,7.72
2018-09-18T20:58:00.132Z,7.70
2018-09-18T21:00:32.913Z,7.78
2018-09-18T21:03:05.909Z,7.75
2018-09-18T21:05:37.608Z,7.92
2018-09-18T21:08:11.328Z,7.85
2018-09-18T21:10:39.926Z,8.00
2018-09-18T21:13:08.560Z,7.45
2018-09-18T21:15:37.623Z,8.18
2018-09-18T21:18:07.979Z,9.13
2018-09-18T21:20:39.305Z,8.38
2018-09-18T21:23:08.583Z,7.40
2018-09-18T21:26:12.365Z,8.45
2018-09-18T21:28:45.304Z,7.80
2018-09-18T21:31:14.160Z,8.10
2018-09-18T21:33:43.140Z,7.78
2018-09-18T21:36:12.766Z,7.65
2018-09-18T21:38:41.429Z,7.95
2018-09-18T21:41:11.309Z,8.30
2018-09-18T21:43:39.927Z,8.08
2018-09-18T21:46:10.053Z,8.15
2018-09-18T21:48:39.797Z,7.87
2018-09-18T21:51:08.747Z,7.78
2018-09-18T21:53:37.424Z,8.38
2018-09-18T21:56:07.388Z,8.40
